sensor_id;sensor_type;location;lat;lon;timestamp;P1;durP1;ratioP1;P2;durP2;ratioP2
23712;SDS011;12035;49.978;8.298;2022-09-09T00:01:54;1.75;;;0.50;;
23712;SDS011;12035;49.978;8.298;2022-09-09T00:07:05;1.23;;;0.50;;
23712;SDS011;12035;49.978;8.298;2022-09-09T00:12:11;1.75;;;0.63;;
23712;SDS011;12035;49.978;8.298;2022-09-09T00:17:14;2.58;;;0.68;;
23712;SDS011;12035;49.978;8.298;2022-09-09T00:22:29;2.47;;;0.57;;
23712;SDS011;12035;49.978;8.298;2022-09-09T00:27:28;4.10;;;0.73;;
23712;SDS011;12035;49.978;8.298;2022-09-09T00:32:32;0.98;;;0.50;;
23712;SDS011;12035;49.978;8.298;2022-09-09T00:37:32;2.78;;;0.60;;
23712;SDS011;12035;49.978;8.298;2022-09-09T00:42:32;2.03;;;0.60;;
23712;SDS011;12035;49.978;8.298;2022-09-09T00:47:43;1.45;;;0.65;;
23712;SDS011;12035;49.978;8.298;2022-09-09T00:52:45;2.10;;;0.80;;
23712;SDS011;12035;49.978;8.298;2022-09-09T00:57:52;2.95;;;0.70;;
23712;SDS011;12035;49.978;8.298;2022-09-09T01:02:59;4.03;;;0.70;;
23712;SDS011;12035;49.978;8.298;2022-09-09T01:08:16;3.28;;;0.70;;
23712;SDS011;12035;49.978;8.298;2022-09-09T01:13:26;1.63;;;0.52;;
23712;SDS011;12035;49.978;8.298;2022-09-09T01:18:26;2.42;;;0.77;;
23712;SDS011;12035;49.978;8.298;2022-09-09T01:23:49;1.60;;;0.63;;
23712;SDS011;12035;49.978;8.298;2022-09-09T01:29:13;2.55;;;0.70;;
23712;SDS011;12035;49.978;8.298;2022-09-09T01:34:13;2.20;;;0.50;;
23712;SDS011;12035;49.978;8.298;2022-09-09T01:39:11;2.50;;;0.60;;
23712;SDS011;12035;49.978;8.298;2022-09-09T01:44:09;2.03;;;0.60;;
23712;SDS011;12035;49.978;8.298;2022-09-09T01:49:08;2.17;;;0.70;;
23712;SDS011;12035;49.978;8.298;2022-09-09T01:54:05;1.92;;;0.60;;
23712;SDS011;12035;49.978;8.298;2022-09-09T01:59:07;2.67;;;0.77;;
23712;SDS011;12035;49.978;8.298;2022-09-09T02:04:27;3.05;;;0.77;;
23712;SDS011;12035;49.978;8.298;2022-09-09T02:09:33;3.42;;;1.05;;
23712;SDS011;12035;49.978;8.298;2022-09-09T02:14:34;2.90;;;0.68;;
23712;SDS011;12035;49.978;8.298;2022-09-09T02:19:40;2.67;;;0.73;;
23712;SDS011;12035;49.978;8.298;2022-09-09T02:24:43;5.45;;;0.70;;
23712;SDS011;12035;49.978;8.298;2022-09-09T02:29:42;1.92;;;0.70;;
23712;SDS011;12035;49.978;8.298;2022-09-09T02:34:44;2.85;;;0.73;;
23712;SDS011;12035;49.978;8.298;2022-09-09T02:39:45;2.70;;;0.77;;
23712;SDS011;12035;49.978;8.298;2022-09-09T02:44:43;2.78;;;0.60;;
23712;SDS011;12035;49.978;8.298;2022-09-09T02:49:43;1.52;;;0.60;;
23712;SDS011;12035;49.978;8.298;2022-09-09T02:54:53;1.05;;;0.45;;
23712;SDS011;12035;49.978;8.298;2022-09-09T02:59:58;2.45;;;0.80;;
23712;SDS011;12035;49.978;8.298;2022-09-09T03:04:58;1.48;;;0.52;;
23712;SDS011;12035;49.978;8.298;2022-09-09T03:09:55;3.55;;;0.80;;
23712;SDS011;12035;49.978;8.298;2022-09-09T03:14:52;1.92;;;0.60;;
23712;SDS011;12035;49.978;8.298;2022-09-09T03:19:49;1.48;;;0.55;;
23712;SDS011;12035;49.978;8.298;2022-09-09T03:24:49;4.07;;;0.75;;
23712;SDS011;12035;49.978;8.298;2022-09-09T03:29:46;2.05;;;0.60;;
23712;SDS011;12035;49.978;8.298;2022-09-09T03:34:46;4.10;;;0.75;;
23712;SDS011;12035;49.978;8.298;2022-09-09T03:39:44;5.15;;;0.70;;
23712;SDS011;12035;49.978;8.298;2022-09-09T03:44:43;4.72;;;0.65;;
23712;SDS011;12035;49.978;8.298;2022-09-09T03:49:43;3.67;;;0.75;;
23712;SDS011;12035;49.978;8.298;2022-09-09T03:59:37;2.58;;;0.63;;
23712;SDS011;12035;49.978;8.298;2022-09-09T04:04:35;3.40;;;0.65;;
23712;SDS011;12035;49.978;8.298;2022-09-09T04:09:33;1.58;;;0.63;;
23712;SDS011;12035;49.978;8.298;2022-09-09T04:14:30;2.15;;;0.55;;
23712;SDS011;12035;49.978;8.298;2022-09-09T04:19:28;3.08;;;0.68;;
23712;SDS011;12035;49.978;8.298;2022-09-09T04:29:24;3.05;;;0.60;;
23712;SDS011;12035;49.978;8.298;2022-09-09T04:34:21;2.03;;;0.75;;
23712;SDS011;12035;49.978;8.298;2022-09-09T04:39:19;2.13;;;0.82;;
23712;SDS011;12035;49.978;8.298;2022-09-09T04:44:17;1.23;;;0.50;;
23712;SDS011;12035;49.978;8.298;2022-09-09T04:49:14;2.15;;;0.60;;
23712;SDS011;12035;49.978;8.298;2022-09-09T04:59:08;4.63;;;0.77;;
23712;SDS011;12035;49.978;8.298;2022-09-09T05:04:07;1.95;;;0.60;;
23712;SDS011;12035;49.978;8.298;2022-09-09T05:09:04;1.83;;;0.55;;
23712;SDS011;12035;49.978;8.298;2022-09-09T05:14:01;5.60;;;0.98;;
23712;SDS011;12035;49.978;8.298;2022-09-09T05:18:58;2.15;;;0.70;;
23712;SDS011;12035;49.978;8.298;2022-09-09T05:23:59;1.70;;;0.63;;
23712;SDS011;12035;49.978;8.298;2022-09-09T05:28:56;3.53;;;0.70;;
23712;SDS011;12035;49.978;8.298;2022-09-09T05:33:55;2.38;;;0.50;;
23712;SDS011;12035;49.978;8.298;2022-09-09T05:38:52;1.77;;;0.50;;
23712;SDS011;12035;49.978;8.298;2022-09-09T05:43:51;5.22;;;0.90;;
23712;SDS011;12035;49.978;8.298;2022-09-09T05:48:48;3.67;;;0.60;;
23712;SDS011;12035;49.978;8.298;2022-09-09T05:53:46;3.30;;;0.60;;
23712;SDS011;12035;49.978;8.298;2022-09-09T05:58:44;3.30;;;0.70;;
23712;SDS011;12035;49.978;8.298;2022-09-09T06:03:46;4.28;;;0.65;;
23712;SDS011;12035;49.978;8.298;2022-09-09T06:08:44;3.33;;;0.60;;
23712;SDS011;12035;49.978;8.298;2022-09-09T06:13:41;2.05;;;0.60;;
23712;SDS011;12035;49.978;8.298;2022-09-09T06:18:39;3.58;;;0.60;;
23712;SDS011;12035;49.978;8.298;2022-09-09T06:23:39;2.63;;;0.90;;
23712;SDS011;12035;49.978;8.298;2022-09-09T06:28:36;2.92;;;0.70;;
23712;SDS011;12035;49.978;8.298;2022-09-09T06:33:35;3.65;;;0.90;;
23712;SDS011;12035;49.978;8.298;2022-09-09T06:38:36;1.40;;;0.60;;
23712;SDS011;12035;49.978;8.298;2022-09-09T06:43:34;2.58;;;0.80;;
23712;SDS011;12035;49.978;8.298;2022-09-09T06:48:31;3.08;;;0.80;;
23712;SDS011;12035;49.978;8.298;2022-09-09T06:53:28;4.50;;;1.00;;
23712;SDS011;12035;49.978;8.298;2022-09-09T06:58:28;4.13;;;1.08;;
23712;SDS011;12035;49.978;8.298;2022-09-09T07:03:27;3.05;;;0.73;;
23712;SDS011;12035;49.978;8.298;2022-09-09T07:08:25;4.22;;;0.80;;
23712;SDS011;12035;49.978;8.298;2022-09-09T07:13:23;3.30;;;1.17;;
23712;SDS011;12035;49.978;8.298;2022-09-09T07:18:20;1.73;;;0.70;;
23712;SDS011;12035;49.978;8.298;2022-09-09T07:23:19;4.70;;;0.85;;
23712;SDS011;12035;49.978;8.298;2022-09-09T07:28:16;5.78;;;0.98;;
23712;SDS011;12035;49.978;8.298;2022-09-09T07:33:13;3.55;;;0.90;;
23712;SDS011;12035;49.978;8.298;2022-09-09T07:38:10;3.65;;;0.88;;
23712;SDS011;12035;49.978;8.298;2022-09-09T07:43:09;2.92;;;0.77;;
23712;SDS011;12035;49.978;8.298;2022-09-09T07:48:06;4.75;;;1.20;;
23712;SDS011;12035;49.978;8.298;2022-09-09T07:53:03;2.92;;;1.15;;
23712;SDS011;12035;49.978;8.298;2022-09-09T07:58:01;3.40;;;1.40;;
23712;SDS011;12035;49.978;8.298;2022-09-09T08:02:59;5.53;;;1.50;;
23712;SDS011;12035;49.978;8.298;2022-09-09T08:07:57;5.22;;;1.65;;
23712;SDS011;12035;49.978;8.298;2022-09-09T08:12:55;6.60;;;1.55;;
23712;SDS011;12035;49.978;8.298;2022-09-09T08:17:52;4.97;;;1.50;;
23712;SDS011;12035;49.978;8.298;2022-09-09T08:22:50;4.90;;;1.20;;
23712;SDS011;12035;49.978;8.298;2022-09-09T08:27:47;4.75;;;1.50;;
23712;SDS011;12035;49.978;8.298;2022-09-09T08:32:44;4.38;;;1.20;;
23712;SDS011;12035;49.978;8.298;2022-09-09T08:37:41;4.82;;;1.35;;
23712;SDS011;12035;49.978;8.298;2022-09-09T08:42:41;5.97;;;1.38;;
23712;SDS011;12035;49.978;8.298;2022-09-09T08:47:45;3.83;;;1.17;;
23712;SDS011;12035;49.978;8.298;2022-09-09T08:52:55;7.22;;;1.48;;
23712;SDS011;12035;49.978;8.298;2022-09-09T08:58:02;4.22;;;1.10;;
23712;SDS011;12035;49.978;8.298;2022-09-09T09:03:11;6.28;;;1.10;;
23712;SDS011;12035;49.978;8.298;2022-09-09T09:08:20;4.60;;;1.00;;
23712;SDS011;12035;49.978;8.298;2022-09-09T09:13:30;5.10;;;0.98;;
23712;SDS011;12035;49.978;8.298;2022-09-09T09:18:36;2.92;;;1.20;;
23712;SDS011;12035;49.978;8.298;2022-09-09T09:23:35;5.32;;;1.27;;
23712;SDS011;12035;49.978;8.298;2022-09-09T09:28:43;4.80;;;1.27;;
23712;SDS011;12035;49.978;8.298;2022-09-09T09:33:44;5.00;;;1.42;;
23712;SDS011;12035;49.978;8.298;2022-09-09T09:38:51;5.20;;;1.20;;
23712;SDS011;12035;49.978;8.298;2022-09-09T09:43:54;7.32;;;1.58;;
23712;SDS011;12035;49.978;8.298;2022-09-09T09:48:58;5.45;;;0.98;;
23712;SDS011;12035;49.978;8.298;2022-09-09T09:54:02;3.45;;;0.90;;
23712;SDS011;12035;49.978;8.298;2022-09-09T09:59:20;4.30;;;0.90;;
23712;SDS011;12035;49.978;8.298;2022-09-09T10:04:20;3.13;;;0.98;;
23712;SDS011;12035;49.978;8.298;2022-09-09T10:09:22;4.68;;;0.95;;
23712;SDS011;12035;49.978;8.298;2022-09-09T10:14:24;2.97;;;0.90;;
23712;SDS011;12035;49.978;8.298;2022-09-09T10:19:30;4.18;;;0.93;;
23712;SDS011;12035;49.978;8.298;2022-09-09T10:30:16;4.10;;;0.93;;
23712;SDS011;12035;49.978;8.298;2022-09-09T10:35:23;4.63;;;1.00;;
23712;SDS011;12035;49.978;8.298;2022-09-09T10:40:27;3.88;;;0.95;;
23712;SDS011;12035;49.978;8.298;2022-09-09T10:45:32;5.88;;;1.33;;
23712;SDS011;12035;49.978;8.298;2022-09-09T10:50:55;3.70;;;0.80;;
23712;SDS011;12035;49.978;8.298;2022-09-09T10:56:04;3.33;;;0.75;;
23712;SDS011;12035;49.978;8.298;2022-09-09T11:01:09;2.22;;;0.70;;
23712;SDS011;12035;49.978;8.298;2022-09-09T11:06:13;4.38;;;1.10;;
23712;SDS011;12035;49.978;8.298;2022-09-09T11:11:15;3.45;;;0.90;;
23712;SDS011;12035;49.978;8.298;2022-09-09T11:16:22;3.08;;;0.95;;
23712;SDS011;12035;49.978;8.298;2022-09-09T11:21:31;4.45;;;0.82;;
23712;SDS011;12035;49.978;8.298;2022-09-09T11:26:36;4.93;;;1.10;;
23712;SDS011;12035;49.978;8.298;2022-09-09T11:31:43;4.93;;;0.80;;
23712;SDS011;12035;49.978;8.298;2022-09-09T11:36:49;3.08;;;0.80;;
23712;SDS011;12035;49.978;8.298;2022-09-09T11:42:06;4.80;;;0.82;;
23712;SDS011;12035;49.978;8.298;2022-09-09T11:47:20;2.85;;;0.70;;
23712;SDS011;12035;49.978;8.298;2022-09-09T11:52:25;5.25;;;0.75;;
23712;SDS011;12035;49.978;8.298;2022-09-09T11:57:35;3.58;;;0.70;;
23712;SDS011;12035;49.978;8.298;2022-09-09T12:02:34;2.45;;;0.75;;
23712;SDS011;12035;49.978;8.298;2022-09-09T12:07:32;5.43;;;1.10;;
23712;SDS011;12035;49.978;8.298;2022-09-09T12:12:32;3.08;;;0.80;;
23712;SDS011;12035;49.978;8.298;2022-09-09T12:17:31;3.78;;;0.90;;
23712;SDS011;12035;49.978;8.298;2022-09-09T12:22:40;6.78;;;1.10;;
23712;SDS011;12035;49.978;8.298;2022-09-09T12:27:52;3.03;;;0.80;;
23712;SDS011;12035;49.978;8.298;2022-09-09T12:33:06;5.10;;;1.02;;
23712;SDS011;12035;49.978;8.298;2022-09-09T12:38:09;6.00;;;1.00;;
23712;SDS011;12035;49.978;8.298;2022-09-09T12:43:17;5.43;;;1.38;;
23712;SDS011;12035;49.978;8.298;2022-09-09T12:48:17;4.15;;;0.85;;
23712;SDS011;12035;49.978;8.298;2022-09-09T12:53:19;4.40;;;0.70;;
23712;SDS011;12035;49.978;8.298;2022-09-09T12:58:21;2.25;;;0.73;;
23712;SDS011;12035;49.978;8.298;2022-09-09T13:03:20;2.28;;;0.50;;
23712;SDS011;12035;49.978;8.298;2022-09-09T13:08:17;2.95;;;0.80;;
23712;SDS011;12035;49.978;8.298;2022-09-09T13:13:16;2.83;;;0.50;;
23712;SDS011;12035;49.978;8.298;2022-09-09T13:18:17;3.42;;;0.50;;
23712;SDS011;12035;49.978;8.298;2022-09-09T13:23:19;2.03;;;0.50;;
23712;SDS011;12035;49.978;8.298;2022-09-09T13:28:20;1.77;;;0.43;;
23712;SDS011;12035;49.978;8.298;2022-09-09T13:33:22;0.45;;;0.30;;
23712;SDS011;12035;49.978;8.298;2022-09-09T13:38:19;1.92;;;0.50;;
23712;SDS011;12035;49.978;8.298;2022-09-09T13:43:18;2.90;;;0.40;;
23712;SDS011;12035;49.978;8.298;2022-09-09T13:48:18;2.35;;;0.35;;
23712;SDS011;12035;49.978;8.298;2022-09-09T13:53:17;2.65;;;0.50;;
23712;SDS011;12035;49.978;8.298;2022-09-09T13:58:14;4.25;;;0.60;;
23712;SDS011;12035;49.978;8.298;2022-09-09T14:03:14;0.90;;;0.40;;
23712;SDS011;12035;49.978;8.298;2022-09-09T14:08:14;2.42;;;0.47;;
23712;SDS011;12035;49.978;8.298;2022-09-09T14:13:21;2.35;;;0.60;;
23712;SDS011;12035;49.978;8.298;2022-09-09T14:18:18;1.13;;;0.50;;
23712;SDS011;12035;49.978;8.298;2022-09-09T14:23:18;1.90;;;0.50;;
23712;SDS011;12035;49.978;8.298;2022-09-09T14:28:17;1.92;;;0.60;;
23712;SDS011;12035;49.978;8.298;2022-09-09T14:33:14;2.28;;;0.70;;
23712;SDS011;12035;49.978;8.298;2022-09-09T14:38:12;7.75;;;0.80;;
23712;SDS011;12035;49.978;8.298;2022-09-09T14:43:10;2.03;;;0.50;;
23712;SDS011;12035;49.978;8.298;2022-09-09T14:48:08;2.83;;;0.80;;
23712;SDS011;12035;49.978;8.298;2022-09-09T14:53:05;4.25;;;0.88;;
23712;SDS011;12035;49.978;8.298;2022-09-09T14:58:03;4.30;;;1.05;;
23712;SDS011;12035;49.978;8.298;2022-09-09T15:03:02;2.53;;;0.70;;
23712;SDS011;12035;49.978;8.298;2022-09-09T15:07:59;2.45;;;0.65;;
23712;SDS011;12035;49.978;8.298;2022-09-09T15:12:57;1.55;;;0.50;;
23712;SDS011;12035;49.978;8.298;2022-09-09T15:17:54;2.30;;;0.73;;
23712;SDS011;12035;49.978;8.298;2022-09-09T15:22:52;3.03;;;0.55;;
23712;SDS011;12035;49.978;8.298;2022-09-09T15:27:49;4.35;;;0.82;;
23712;SDS011;12035;49.978;8.298;2022-09-09T15:32:46;2.15;;;0.63;;
23712;SDS011;12035;49.978;8.298;2022-09-09T15:37:43;2.35;;;0.50;;
23712;SDS011;12035;49.978;8.298;2022-09-09T15:42:42;3.13;;;0.73;;
23712;SDS011;12035;49.978;8.298;2022-09-09T15:47:41;2.30;;;0.77;;
23712;SDS011;12035;49.978;8.298;2022-09-09T15:52:38;2.97;;;0.60;;
23712;SDS011;12035;49.978;8.298;2022-09-09T15:57:35;1.27;;;0.47;;
23712;SDS011;12035;49.978;8.298;2022-09-09T16:02:35;1.98;;;0.40;;
23712;SDS011;12035;49.978;8.298;2022-09-09T16:07:32;2.50;;;0.60;;
23712;SDS011;12035;49.978;8.298;2022-09-09T16:12:30;2.03;;;0.65;;
23712;SDS011;12035;49.978;8.298;2022-09-09T16:17:27;1.05;;;0.32;;
23712;SDS011;12035;49.978;8.298;2022-09-09T16:22:26;0.75;;;0.40;;
23712;SDS011;12035;49.978;8.298;2022-09-09T16:27:23;2.08;;;0.60;;
23712;SDS011;12035;49.978;8.298;2022-09-09T16:32:20;1.27;;;0.50;;
23712;SDS011;12035;49.978;8.298;2022-09-09T16:37:17;1.77;;;0.57;;
23712;SDS011;12035;49.978;8.298;2022-09-09T16:42:16;1.73;;;0.40;;
23712;SDS011;12035;49.978;8.298;2022-09-09T16:47:13;1.27;;;0.60;;
23712;SDS011;12035;49.978;8.298;2022-09-09T16:52:10;2.33;;;0.80;;
23712;SDS011;12035;49.978;8.298;2022-09-09T16:57:07;2.88;;;0.40;;
23712;SDS011;12035;49.978;8.298;2022-09-09T17:02:05;3.60;;;0.50;;
23712;SDS011;12035;49.978;8.298;2022-09-09T17:07:04;0.82;;;0.50;;
23712;SDS011;12035;49.978;8.298;2022-09-09T17:12:01;2.67;;;0.52;;
23712;SDS011;12035;49.978;8.298;2022-09-09T17:16:58;1.67;;;0.38;;
23712;SDS011;12035;49.978;8.298;2022-09-09T17:21:58;2.22;;;0.68;;
23712;SDS011;12035;49.978;8.298;2022-09-09T17:26:55;3.33;;;0.60;;
23712;SDS011;12035;49.978;8.298;2022-09-09T17:31:52;1.17;;;0.50;;
23712;SDS011;12035;49.978;8.298;2022-09-09T17:36:50;5.65;;;0.85;;
23712;SDS011;12035;49.978;8.298;2022-09-09T17:41:48;2.83;;;0.50;;
23712;SDS011;12035;49.978;8.298;2022-09-09T17:46:45;3.47;;;0.77;;
23712;SDS011;12035;49.978;8.298;2022-09-09T17:51:43;4.43;;;0.70;;
23712;SDS011;12035;49.978;8.298;2022-09-09T17:56:41;1.90;;;0.60;;
23712;SDS011;12035;49.978;8.298;2022-09-09T18:01:41;2.58;;;0.50;;
23712;SDS011;12035;49.978;8.298;2022-09-09T18:06:40;2.05;;;0.60;;
23712;SDS011;12035;49.978;8.298;2022-09-09T18:11:42;1.33;;;0.28;;
23712;SDS011;12035;49.978;8.298;2022-09-09T18:16:43;1.30;;;0.45;;
23712;SDS011;12035;49.978;8.298;2022-09-09T18:21:42;1.67;;;0.28;;
23712;SDS011;12035;49.978;8.298;2022-09-09T18:26:40;2.83;;;0.40;;
23712;SDS011;12035;49.978;8.298;2022-09-09T18:31:38;2.60;;;0.40;;
23712;SDS011;12035;49.978;8.298;2022-09-09T18:36:39;1.92;;;0.40;;
23712;SDS011;12035;49.978;8.298;2022-09-09T18:41:39;1.08;;;0.35;;
23712;SDS011;12035;49.978;8.298;2022-09-09T18:46:38;4.22;;;0.57;;
23712;SDS011;12035;49.978;8.298;2022-09-09T18:51:36;1.80;;;0.50;;
23712;SDS011;12035;49.978;8.298;2022-09-09T18:56:37;3.83;;;0.60;;
23712;SDS011;12035;49.978;8.298;2022-09-09T19:01:34;1.67;;;0.50;;
23712;SDS011;12035;49.978;8.298;2022-09-09T19:06:33;1.92;;;0.50;;
23712;SDS011;12035;49.978;8.298;2022-09-09T19:11:35;0.90;;;0.40;;
23712;SDS011;12035;49.978;8.298;2022-09-09T19:16:34;2.42;;;0.45;;
23712;SDS011;12035;49.978;8.298;2022-09-09T19:21:32;1.50;;;0.40;;
23712;SDS011;12035;49.978;8.298;2022-09-09T19:26:32;1.20;;;0.40;;
23712;SDS011;12035;49.978;8.298;2022-09-09T19:31:34;1.80;;;0.40;;
23712;SDS011;12035;49.978;8.298;2022-09-09T19:36:31;1.27;;;0.50;;
23712;SDS011;12035;49.978;8.298;2022-09-09T19:41:29;2.20;;;0.32;;
23712;SDS011;12035;49.978;8.298;2022-09-09T19:46:28;2.85;;;0.40;;
23712;SDS011;12035;49.978;8.298;2022-09-09T19:51:27;2.30;;;0.50;;
23712;SDS011;12035;49.978;8.298;2022-09-09T19:56:26;1.38;;;0.40;;
23712;SDS011;12035;49.978;8.298;2022-09-09T20:01:25;1.05;;;0.32;;
23712;SDS011;12035;49.978;8.298;2022-09-09T20:06:26;2.08;;;0.50;;
23712;SDS011;12035;49.978;8.298;2022-09-09T20:11:26;1.08;;;0.40;;
23712;SDS011;12035;49.978;8.298;2022-09-09T20:16:24;0.52;;;0.25;;
23712;SDS011;12035;49.978;8.298;2022-09-09T20:21:26;1.15;;;0.32;;
23712;SDS011;12035;49.978;8.298;2022-09-09T20:26:25;0.70;;;0.20;;
23712;SDS011;12035;49.978;8.298;2022-09-09T20:31:26;1.73;;;0.32;;
23712;SDS011;12035;49.978;8.298;2022-09-09T20:36:27;1.50;;;0.40;;
23712;SDS011;12035;49.978;8.298;2022-09-09T20:41:26;1.17;;;0.30;;
23712;SDS011;12035;49.978;8.298;2022-09-09T20:46:26;1.30;;;0.35;;
23712;SDS011;12035;49.978;8.298;2022-09-09T20:51:27;1.55;;;0.57;;
23712;SDS011;12035;49.978;8.298;2022-09-09T20:56:27;1.25;;;0.43;;
23712;SDS011;12035;49.978;8.298;2022-09-09T21:01:28;1.50;;;0.63;;
23712;SDS011;12035;49.978;8.298;2022-09-09T21:06:26;1.00;;;0.60;;
23712;SDS011;12035;49.978;8.298;2022-09-09T21:11:24;2.72;;;0.60;;
23712;SDS011;12035;49.978;8.298;2022-09-09T21:16:22;3.25;;;0.63;;
23712;SDS011;12035;49.978;8.298;2022-09-09T21:21:20;2.03;;;0.30;;
23712;SDS011;12035;49.978;8.298;2022-09-09T21:26:19;2.10;;;0.50;;
23712;SDS011;12035;49.978;8.298;2022-09-09T21:31:17;1.65;;;0.60;;
23712;SDS011;12035;49.978;8.298;2022-09-09T21:36:15;0.88;;;0.50;;
23712;SDS011;12035;49.978;8.298;2022-09-09T21:46:12;0.70;;;0.30;;
23712;SDS011;12035;49.978;8.298;2022-09-09T21:51:12;1.23;;;0.47;;
23712;SDS011;12035;49.978;8.298;2022-09-09T21:56:13;2.15;;;0.50;;
23712;SDS011;12035;49.978;8.298;2022-09-09T22:01:14;1.08;;;0.50;;
23712;SDS011;12035;49.978;8.298;2022-09-09T22:06:14;2.25;;;0.50;;
23712;SDS011;12035;49.978;8.298;2022-09-09T22:11:14;2.78;;;0.50;;
23712;SDS011;12035;49.978;8.298;2022-09-09T22:16:16;0.77;;;0.50;;
23712;SDS011;12035;49.978;8.298;2022-09-09T22:21:15;1.15;;;0.60;;
23712;SDS011;12035;49.978;8.298;2022-09-09T22:26:14;2.78;;;0.80;;
23712;SDS011;12035;49.978;8.298;2022-09-09T22:31:11;5.30;;;1.25;;
23712;SDS011;12035;49.978;8.298;2022-09-09T22:36:09;0.90;;;0.40;;
23712;SDS011;12035;49.978;8.298;2022-09-09T22:41:07;1.52;;;0.40;;
23712;SDS011;12035;49.978;8.298;2022-09-09T22:46:05;2.15;;;0.65;;
23712;SDS011;12035;49.978;8.298;2022-09-09T22:51:03;1.35;;;0.52;;
23712;SDS011;12035;49.978;8.298;2022-09-09T22:56:09;2.15;;;0.65;;
23712;SDS011;12035;49.978;8.298;2022-09-09T23:01:10;4.97;;;0.60;;
23712;SDS011;12035;49.978;8.298;2022-09-09T23:06:09;2.25;;;0.60;;
23712;SDS011;12035;49.978;8.298;2022-09-09T23:11:17;1.50;;;0.60;;
23712;SDS011;12035;49.978;8.298;2022-09-09T23:16:16;1.55;;;0.80;;
23712;SDS011;12035;49.978;8.298;2022-09-09T23:21:14;2.47;;;0.60;;
23712;SDS011;12035;49.978;8.298;2022-09-09T23:26:12;3.35;;;0.80;;
23712;SDS011;12035;49.978;8.298;2022-09-09T23:31:17;2.42;;;1.10;;
23712;SDS011;12035;49.978;8.298;2022-09-09T23:36:19;1.90;;;0.57;;
23712;SDS011;12035;49.978;8.298;2022-09-09T23:41:19;1.45;;;0.60;;
23712;SDS011;12035;49.978;8.298;2022-09-09T23:46:18;2.30;;;0.80;;
23712;SDS011;12035;49.978;8.298;2022-09-09T23:51:18;2.63;;;0.60;;
23712;SDS011;12035;49.978;8.298;2022-09-09T23:56:18;3.30;;;0.88;;
